LEGE/GRO METAR and TAF weather

Enter ICAO airport designator
Station Type Date Time Source
LEGE METAR 2021/05/14 12:30 UTC NOAA

LEGE 141230Z 17010KT 120V220 9999 VCTS FEW016 FEW022CB BKN036 16/12 Q1013 RETSRA


Station Type Date Time Source
LEGE Decoded METAR 2021/05/14 12:30 UTC NOAA

Gerona / Costa Brava, Spain (LEGE) 41-54N 002-46E 129M
May 14, 2021 - 08:30 AM EDT / 2021.05.14 1230 UTC
Wind: from the S (170 degrees) at 12 MPH (10 KT) (direction variable):0
Visibility: greater than 7 mile(s):0
Sky conditions: mostly cloudy
Weather: thunder in the vicinity; Cumulonimbus clouds observed
Temperature: 60 F (16 C)
Dew Point: 53 F (12 C)
Relative Humidity: 77%
Pressure (altimeter): 29.91 in. Hg (1013 hPa)
ob: LEGE 141230Z 17010KT 120V220 9999 VCTS FEW016 FEW022CB BKN036 16/12 Q1013 RETSRA
cycle: 12

Station Type Date Time Source
LEGE TAF 2021/05/14 12:27 UTC NOAA

TAF LEGE 141100Z 1412/1512 18010KT 9999 SCT020 TX19/1413Z TN10/1506Z
TEMPO 1412/1415 3000 TSRA FEW020CB
BECMG 1418/1420 VRB04KT
TEMPO 1422/1506 1500 BR BKN005
BECMG 1510/1512 16009KT

Example: see airport list